sensor_id;sensor_type;location;lat;lon;timestamp;pressure;altitude;pressure_sealevel;temperature;humidity
79123;BME280;68526;44.600;26.032;2024-01-10T00:00:09;102215.38;;;-4.73;64.94
79123;BME280;68526;44.600;26.032;2024-01-10T00:00:25;102224.56;;;-4.75;65.19
79123;BME280;68526;44.600;26.032;2024-01-10T00:00:41;102214.38;;;-4.72;64.88
79123;BME280;68526;44.600;26.032;2024-01-10T00:00:58;102218.22;;;-4.74;65.54
79123;BME280;68526;44.600;26.032;2024-01-10T00:01:14;102215.03;;;-4.70;64.99
79123;BME280;68526;44.600;26.032;2024-01-10T00:01:30;102215.03;;;-4.70;65.04
79123;BME280;68526;44.600;26.032;2024-01-10T00:01:46;102224.06;;;-4.71;65.05
79123;BME280;68526;44.600;26.032;2024-01-10T00:02:02;102217.38;;;-4.75;65.47
79123;BME280;68526;44.600;26.032;2024-01-10T00:02:18;102215.25;;;-4.79;65.44
79123;BME280;68526;44.600;26.032;2024-01-10T00:02:34;102215.72;;;-4.76;65.22
79123;BME280;68526;44.600;26.032;2024-01-10T00:02:50;102220.41;;;-4.78;65.46
79123;BME280;68526;44.600;26.032;2024-01-10T00:03:07;102220.22;;;-4.76;65.38
79123;BME280;68526;44.600;26.032;2024-01-10T00:03:23;102219.91;;;-4.73;65.40
79123;BME280;68526;44.600;26.032;2024-01-10T00:03:39;102220.88;;;-4.74;65.38
79123;BME280;68526;44.600;26.032;2024-01-10T00:03:55;102213.72;;;-4.74;65.71
79123;BME280;68526;44.600;26.032;2024-01-10T00:04:11;102208.72;;;-4.77;65.57
79123;BME280;68526;44.600;26.032;2024-01-10T00:04:27;102217.22;;;-4.73;65.39
79123;BME280;68526;44.600;26.032;2024-01-10T00:04:43;102217.03;;;-4.72;65.29
79123;BME280;68526;44.600;26.032;2024-01-10T00:05:00;102218.72;;;-4.71;65.59
79123;BME280;68526;44.600;26.032;2024-01-10T00:05:16;102213.03;;;-4.68;65.25
79123;BME280;68526;44.600;26.032;2024-01-10T00:05:32;102214.69;;;-4.67;65.53
79123;BME280;68526;44.600;26.032;2024-01-10T00:05:47;102220.22;;;-4.68;65.46
79123;BME280;68526;44.600;26.032;2024-01-10T00:06:04;102220.22;;;-4.68;65.32
79123;BME280;68526;44.600;26.032;2024-01-10T00:06:20;102215.69;;;-4.68;65.52
79123;BME280;68526;44.600;26.032;2024-01-10T00:06:36;102214.19;;;-4.70;65.58
79123;BME280;68526;44.600;26.032;2024-01-10T00:06:53;102210.88;;;-4.72;65.54
79123;BME280;68526;44.600;26.032;2024-01-10T00:07:09;102211.06;;;-4.74;65.59
79123;BME280;68526;44.600;26.032;2024-01-10T00:07:25;102213.34;;;-4.71;65.89
79123;BME280;68526;44.600;26.032;2024-01-10T00:07:41;102209.03;;;-4.72;65.68
79123;BME280;68526;44.600;26.032;2024-01-10T00:07:56;102213.03;;;-4.68;65.89
79123;BME280;68526;44.600;26.032;2024-01-10T00:08:12;102221.69;;;-4.66;65.62
79123;BME280;68526;44.600;26.032;2024-01-10T00:08:28;102220.69;;;-4.65;65.36
79123;BME280;68526;44.600;26.032;2024-01-10T00:08:44;102217.81;;;-4.63;65.52
79123;BME280;68526;44.600;26.032;2024-01-10T00:09:02;102214.31;;;-4.64;65.63
79123;BME280;68526;44.600;26.032;2024-01-10T00:09:18;102216.34;;;-4.66;65.77
79123;BME280;68526;44.600;26.032;2024-01-10T00:09:35;102214.00;;;-4.69;65.87
79123;BME280;68526;44.600;26.032;2024-01-10T00:09:51;102218.00;;;-4.65;65.88
79123;BME280;68526;44.600;26.032;2024-01-10T00:10:08;102212.84;;;-4.66;65.76
79123;BME280;68526;44.600;26.032;2024-01-10T00:10:23;102223.03;;;-4.62;65.99
79123;BME280;68526;44.600;26.032;2024-01-10T00:10:39;102219.34;;;-4.61;65.52
79123;BME280;68526;44.600;26.032;2024-01-10T00:10:56;102214.63;;;-4.59;65.50
79123;BME280;68526;44.600;26.032;2024-01-10T00:11:12;102213.63;;;-4.58;65.58
79123;BME280;68526;44.600;26.032;2024-01-10T00:11:28;102211.78;;;-4.57;65.70
79123;BME280;68526;44.600;26.032;2024-01-10T00:11:44;102211.63;;;-4.55;65.63
79123;BME280;68526;44.600;26.032;2024-01-10T00:12:00;102225.00;;;-4.55;65.76
79123;BME280;68526;44.600;26.032;2024-01-10T00:12:16;102218.31;;;-4.60;65.63
79123;BME280;68526;44.600;26.032;2024-01-10T00:12:32;102221.50;;;-4.56;65.57
79123;BME280;68526;44.600;26.032;2024-01-10T00:12:52;102217.13;;;-4.57;65.48
79123;BME280;68526;44.600;26.032;2024-01-10T00:13:09;102221.34;;;-4.63;65.88
79123;BME280;68526;44.600;26.032;2024-01-10T00:13:25;102220.50;;;-4.63;65.97
79123;BME280;68526;44.600;26.032;2024-01-10T00:13:41;102220.34;;;-4.62;65.85
79123;BME280;68526;44.600;26.032;2024-01-10T00:13:57;102220.03;;;-4.67;66.13
79123;BME280;68526;44.600;26.032;2024-01-10T00:14:15;102218.50;;;-4.61;66.20
79123;BME280;68526;44.600;26.032;2024-01-10T00:14:32;102218.50;;;-4.61;66.18
79123;BME280;68526;44.600;26.032;2024-01-10T00:14:48;102227.38;;;-4.61;65.92
79123;BME280;68526;44.600;26.032;2024-01-10T00:15:05;102215.16;;;-4.63;66.07
79123;BME280;68526;44.600;26.032;2024-01-10T00:15:21;102216.34;;;-4.66;66.23
79123;BME280;68526;44.600;26.032;2024-01-10T00:15:37;102215.19;;;-4.71;66.37
79123;BME280;68526;44.600;26.032;2024-01-10T00:15:53;102218.88;;;-4.72;66.37
79123;BME280;68526;44.600;26.032;2024-01-10T00:16:11;102227.38;;;-4.69;66.49
79123;BME280;68526;44.600;26.032;2024-01-10T00:16:28;102222.41;;;-4.72;66.81
79123;BME280;68526;44.600;26.032;2024-01-10T00:16:44;102228.06;;;-4.75;66.75
79123;BME280;68526;44.600;26.032;2024-01-10T00:17:01;102222.91;;;-4.68;66.62
79123;BME280;68526;44.600;26.032;2024-01-10T00:17:17;102227.03;;;-4.66;66.54
79123;BME280;68526;44.600;26.032;2024-01-10T00:17:33;102219.84;;;-4.65;66.34
79123;BME280;68526;44.600;26.032;2024-01-10T00:17:49;102220.38;;;-4.70;66.51
79123;BME280;68526;44.600;26.032;2024-01-10T00:18:05;102219.53;;;-4.70;66.59
79123;BME280;68526;44.600;26.032;2024-01-10T00:18:21;102224.41;;;-4.74;66.51
79123;BME280;68526;44.600;26.032;2024-01-10T00:18:38;102219.53;;;-4.70;66.66
79123;BME280;68526;44.600;26.032;2024-01-10T00:18:55;102223.56;;;-4.74;66.79
79123;BME280;68526;44.600;26.032;2024-01-10T00:19:11;102225.44;;;-4.83;66.92
79123;BME280;68526;44.600;26.032;2024-01-10T00:19:27;102229.31;;;-4.86;67.17
79123;BME280;68526;44.600;26.032;2024-01-10T00:19:43;102222.94;;;-4.85;67.22
79123;BME280;68526;44.600;26.032;2024-01-10T00:19:59;102219.91;;;-4.81;66.82
79123;BME280;68526;44.600;26.032;2024-01-10T00:20:15;102219.41;;;-4.77;66.73
79123;BME280;68526;44.600;26.032;2024-01-10T00:20:32;102225.59;;;-4.76;66.83
79123;BME280;68526;44.600;26.032;2024-01-10T00:20:48;102218.56;;;-4.77;66.84
79123;BME280;68526;44.600;26.032;2024-01-10T00:21:04;102223.41;;;-4.81;67.13
79123;BME280;68526;44.600;26.032;2024-01-10T00:21:20;102225.94;;;-4.88;67.15
79123;BME280;68526;44.600;26.032;2024-01-10T00:21:36;102222.13;;;-4.85;67.26
79123;BME280;68526;44.600;26.032;2024-01-10T00:21:52;102220.59;;;-4.79;67.34
79123;BME280;68526;44.600;26.032;2024-01-10T00:22:09;102205.25;;;-4.94;67.00
79123;BME280;68526;44.600;26.032;2024-01-10T00:22:25;102222.44;;;-4.80;67.07
79123;BME280;68526;44.600;26.032;2024-01-10T00:22:41;102223.41;;;-4.81;66.84
79123;BME280;68526;44.600;26.032;2024-01-10T00:22:57;102225.31;;;-4.90;67.29
79123;BME280;68526;44.600;26.032;2024-01-10T00:23:13;102231.81;;;-4.84;67.29
79123;BME280;68526;44.600;26.032;2024-01-10T00:23:29;102223.41;;;-4.81;66.93
79123;BME280;68526;44.600;26.032;2024-01-10T00:23:45;102229.59;;;-4.80;66.96
79123;BME280;68526;44.600;26.032;2024-01-10T00:24:00;102221.56;;;-4.80;66.88
79123;BME280;68526;44.600;26.032;2024-01-10T00:24:19;102226.63;;;-4.86;67.50
79123;BME280;68526;44.600;26.032;2024-01-10T00:24:35;102223.59;;;-4.82;67.26
79123;BME280;68526;44.600;26.032;2024-01-10T00:24:51;102223.28;;;-4.88;67.57
79123;BME280;68526;44.600;26.032;2024-01-10T00:25:07;102228.13;;;-4.83;67.32
79123;BME280;68526;44.600;26.032;2024-01-10T00:25:23;102221.94;;;-4.84;67.55
79123;BME280;68526;44.600;26.032;2024-01-10T00:25:39;102229.59;;;-4.80;67.33
79123;BME280;68526;44.600;26.032;2024-01-10T00:25:56;102223.59;;;-4.82;67.41
79123;BME280;68526;44.600;26.032;2024-01-10T00:26:12;102219.25;;;-4.84;67.47
79123;BME280;68526;44.600;26.032;2024-01-10T00:26:28;102229.31;;;-4.86;67.30
79123;BME280;68526;44.600;26.032;2024-01-10T00:26:44;102221.13;;;-4.92;67.88
79123;BME280;68526;44.600;26.032;2024-01-10T00:27:00;102225.13;;;-4.88;67.69
79123;BME280;68526;44.600;26.032;2024-01-10T00:27:16;102225.81;;;-4.86;67.78
79123;BME280;68526;44.600;26.032;2024-01-10T00:27:32;102229.47;;;-4.87;67.78
79123;BME280;68526;44.600;26.032;2024-01-10T00:27:47;102218.28;;;-4.91;68.07
79123;BME280;68526;44.600;26.032;2024-01-10T00:28:05;102220.47;;;-4.86;67.81
79123;BME280;68526;44.600;26.032;2024-01-10T00:28:21;102224.28;;;-4.89;67.82
79123;BME280;68526;44.600;26.032;2024-01-10T00:28:37;102229.63;;;-4.89;67.95
79123;BME280;68526;44.600;26.032;2024-01-10T00:28:52;102225.81;;;-4.86;67.76
79123;BME280;68526;44.600;26.032;2024-01-10T00:29:08;102211.56;;;-4.87;67.67
79123;BME280;68526;44.600;26.032;2024-01-10T00:29:24;102227.16;;;-4.90;67.98
79123;BME280;68526;44.600;26.032;2024-01-10T00:29:40;102227.31;;;-4.92;68.13
79123;BME280;68526;44.600;26.032;2024-01-10T00:29:56;102220.81;;;-4.97;68.38
79123;BME280;68526;44.600;26.032;2024-01-10T00:30:13;102229.81;;;-4.98;68.31
79123;BME280;68526;44.600;26.032;2024-01-10T00:30:29;102228.84;;;-4.97;68.30
79123;BME280;68526;44.600;26.032;2024-01-10T00:30:45;102228.31;;;-4.93;68.33
79123;BME280;68526;44.600;26.032;2024-01-10T00:31:03;102227.66;;;-4.95;68.26
79123;BME280;68526;44.600;26.032;2024-01-10T00:31:19;102231.84;;;-5.00;68.32
79123;BME280;68526;44.600;26.032;2024-01-10T00:31:35;102220.69;;;-5.04;68.52
79123;BME280;68526;44.600;26.032;2024-01-10T00:31:51;102224.84;;;-5.01;68.83
79123;BME280;68526;44.600;26.032;2024-01-10T00:32:08;102229.81;;;-4.98;68.69
79123;BME280;68526;44.600;26.032;2024-01-10T00:32:25;102230.69;;;-4.98;68.44
79123;BME280;68526;44.600;26.032;2024-01-10T00:32:41;102226.47;;;-4.92;68.25
79123;BME280;68526;44.600;26.032;2024-01-10T00:32:57;102230.97;;;-4.93;68.46
79123;BME280;68526;44.600;26.032;2024-01-10T00:33:13;102228.66;;;-4.96;68.50
79123;BME280;68526;44.600;26.032;2024-01-10T00:33:29;102226.81;;;-4.95;68.24
79123;BME280;68526;44.600;26.032;2024-01-10T00:33:45;102228.34;;;-5.01;69.00
79123;BME280;68526;44.600;26.032;2024-01-10T00:34:01;102233.88;;;-5.02;68.88
79123;BME280;68526;44.600;26.032;2024-01-10T00:34:17;102232.50;;;-4.98;68.59
79123;BME280;68526;44.600;26.032;2024-01-10T00:34:34;102232.00;;;-4.94;68.30
79123;BME280;68526;44.600;26.032;2024-01-10T00:34:50;102227.47;;;-4.93;68.25
79123;BME280;68526;44.600;26.032;2024-01-10T00:35:06;102233.50;;;-4.91;68.41
79123;BME280;68526;44.600;26.032;2024-01-10T00:35:22;102232.31;;;-4.89;68.08
79123;BME280;68526;44.600;26.032;2024-01-10T00:35:38;102228.63;;;-4.88;68.36
79123;BME280;68526;44.600;26.032;2024-01-10T00:35:54;102231.31;;;-4.88;68.38
79123;BME280;68526;44.600;26.032;2024-01-10T00:36:11;102232.97;;;-4.87;68.42
79123;BME280;68526;44.600;26.032;2024-01-10T00:36:27;102237.47;;;-4.87;68.30
79123;BME280;68526;44.600;26.032;2024-01-10T00:36:42;102228.97;;;-4.91;68.11
79123;BME280;68526;44.600;26.032;2024-01-10T00:36:58;102228.00;;;-4.98;68.92
79123;BME280;68526;44.600;26.032;2024-01-10T00:37:14;102229.16;;;-5.00;68.97
79123;BME280;68526;44.600;26.032;2024-01-10T00:37:30;102230.19;;;-5.01;69.16
79123;BME280;68526;44.600;26.032;2024-01-10T00:37:46;102226.00;;;-4.96;68.84
79123;BME280;68526;44.600;26.032;2024-01-10T00:38:02;102224.66;;;-4.92;68.63
79123;BME280;68526;44.600;26.032;2024-01-10T00:38:19;102226.31;;;-4.91;68.69
79123;BME280;68526;44.600;26.032;2024-01-10T00:38:36;102224.47;;;-4.90;68.93
79123;BME280;68526;44.600;26.032;2024-01-10T00:38:52;102223.97;;;-4.94;69.01
79123;BME280;68526;44.600;26.032;2024-01-10T00:39:08;102223.97;;;-4.94;68.72
79123;BME280;68526;44.600;26.032;2024-01-10T00:39:25;102225.63;;;-4.93;68.60
79123;BME280;68526;44.600;26.032;2024-01-10T00:39:41;102227.31;;;-4.92;68.90
79123;BME280;68526;44.600;26.032;2024-01-10T00:39:57;102227.00;;;-4.97;68.93
79123;BME280;68526;44.600;26.032;2024-01-10T00:40:14;102228.16;;;-4.99;68.94
79123;BME280;68526;44.600;26.032;2024-01-10T00:40:30;102228.34;;;-5.01;69.17
79123;BME280;68526;44.600;26.032;2024-01-10T00:40:46;102229.50;;;-4.95;69.25
79123;BME280;68526;44.600;26.032;2024-01-10T00:41:02;102225.47;;;-4.91;68.85
79123;BME280;68526;44.600;26.032;2024-01-10T00:41:18;102222.31;;;-4.95;69.00
79123;BME280;68526;44.600;26.032;2024-01-10T00:41:34;102231.16;;;-4.94;68.75
79123;BME280;68526;44.600;26.032;2024-01-10T00:41:50;102225.66;;;-5.01;69.16
79123;BME280;68526;44.600;26.032;2024-01-10T00:42:07;102221.81;;;-4.98;69.22
79123;BME280;68526;44.600;26.032;2024-01-10T00:42:23;102230.00;;;-5.00;69.17
79123;BME280;68526;44.600;26.032;2024-01-10T00:42:39;102226.00;;;-4.96;69.14
79123;BME280;68526;44.600;26.032;2024-01-10T00:42:54;102225.81;;;-4.94;69.16
79123;BME280;68526;44.600;26.032;2024-01-10T00:43:10;102224.00;;;-5.02;69.18
79123;BME280;68526;44.600;26.032;2024-01-10T00:43:26;102225.84;;;-5.02;69.39
79123;BME280;68526;44.600;26.032;2024-01-10T00:43:42;102232.84;;;-5.01;69.30
79123;BME280;68526;44.600;26.032;2024-01-10T00:43:58;102231.84;;;-5.00;69.28
79123;BME280;68526;44.600;26.032;2024-01-10T00:44:15;102232.50;;;-4.98;69.20
79123;BME280;68526;44.600;26.032;2024-01-10T00:44:31;102225.66;;;-5.01;69.08
79123;BME280;68526;44.600;26.032;2024-01-10T00:44:47;102220.00;;;-4.98;68.96
79123;BME280;68526;44.600;26.032;2024-01-10T00:45:03;102227.16;;;-4.98;69.28
79123;BME280;68526;44.600;26.032;2024-01-10T00:45:20;102225.34;;;-4.98;69.29
79123;BME280;68526;44.600;26.032;2024-01-10T00:45:36;102232.50;;;-4.98;69.20
79123;BME280;68526;44.600;26.032;2024-01-10T00:45:53;102228.84;;;-4.97;69.30
79123;BME280;68526;44.600;26.032;2024-01-10T00:46:09;102229.50;;;-4.95;69.32
79123;BME280;68526;44.600;26.032;2024-01-10T00:46:25;102229.50;;;-4.95;69.19
79123;BME280;68526;44.600;26.032;2024-01-10T00:46:40;102223.19;;;-5.02;69.69
79123;BME280;68526;44.600;26.032;2024-01-10T00:46:56;102211.16;;;-5.06;69.71
79123;BME280;68526;44.600;26.032;2024-01-10T00:47:12;102227.84;;;-4.96;69.69
79123;BME280;68526;44.600;26.032;2024-01-10T00:47:28;102226.66;;;-4.94;69.37
79123;BME280;68526;44.600;26.032;2024-01-10T00:47:45;102228.31;;;-4.93;69.20
79123;BME280;68526;44.600;26.032;2024-01-10T00:48:01;102229.81;;;-4.98;69.61
79123;BME280;68526;44.600;26.032;2024-01-10T00:48:17;102223.19;;;-5.02;70.01
79123;BME280;68526;44.600;26.032;2024-01-10T00:48:33;102229.22;;;-5.08;70.41
79123;BME280;68526;44.600;26.032;2024-01-10T00:48:49;102223.03;;;-5.09;70.47
79123;BME280;68526;44.600;26.032;2024-01-10T00:49:05;102221.00;;;-5.07;70.29
79123;BME280;68526;44.600;26.032;2024-01-10T00:49:21;102220.69;;;-5.12;70.66
79123;BME280;68526;44.600;26.032;2024-01-10T00:49:38;102224.69;;;-5.08;70.47
79123;BME280;68526;44.600;26.032;2024-01-10T00:49:54;102220.69;;;-5.04;70.10
79123;BME280;68526;44.600;26.032;2024-01-10T00:50:11;102220.31;;;-5.01;70.26
79123;BME280;68526;44.600;26.032;2024-01-10T00:50:26;102217.66;;;-5.01;70.32
79123;BME280;68526;44.600;26.032;2024-01-10T00:50:42;102216.81;;;-5.01;70.24
79123;BME280;68526;44.600;26.032;2024-01-10T00:50:59;102218.66;;;-5.02;70.27
79123;BME280;68526;44.600;26.032;2024-01-10T00:51:15;102219.81;;;-5.04;70.43
79123;BME280;68526;44.600;26.032;2024-01-10T00:51:32;102227.00;;;-5.05;70.35
79123;BME280;68526;44.600;26.032;2024-01-10T00:51:48;102219.16;;;-5.06;70.61
79123;BME280;68526;44.600;26.032;2024-01-10T00:52:04;102231.38;;;-5.12;70.82
79123;BME280;68526;44.600;26.032;2024-01-10T00:52:20;102214.19;;;-5.18;71.23
79123;BME280;68526;44.600;26.032;2024-01-10T00:52:36;102219.84;;;-5.13;70.89
79123;BME280;68526;44.600;26.032;2024-01-10T00:52:52;102216.53;;;-5.15;71.14
79123;BME280;68526;44.600;26.032;2024-01-10T00:53:08;102223.19;;;-5.11;70.96
79123;BME280;68526;44.600;26.032;2024-01-10T00:53:25;102223.53;;;-5.14;71.20
79123;BME280;68526;44.600;26.032;2024-01-10T00:53:41;102220.22;;;-5.16;71.40
79123;BME280;68526;44.600;26.032;2024-01-10T00:53:58;102214.50;;;-5.13;71.28
79123;BME280;68526;44.600;26.032;2024-01-10T00:54:13;102217.84;;;-5.11;71.16
79123;BME280;68526;44.600;26.032;2024-01-10T00:54:31;102221.88;;;-5.15;71.19
79123;BME280;68526;44.600;26.032;2024-01-10T00:54:47;102216.66;;;-5.16;71.32
79123;BME280;68526;44.600;26.032;2024-01-10T00:55:03;102222.88;;;-5.16;71.73
79123;BME280;68526;44.600;26.032;2024-01-10T00:55:20;102219.34;;;-5.16;71.56
79123;BME280;68526;44.600;26.032;2024-01-10T00:55:36;102217.19;;;-5.13;71.32
79123;BME280;68526;44.600;26.032;2024-01-10T00:55:52;102222.34;;;-5.11;71.36
79123;BME280;68526;44.600;26.032;2024-01-10T00:56:08;102224.69;;;-5.16;71.70
79123;BME280;68526;44.600;26.032;2024-01-10T00:56:25;102215.19;;;-5.19;71.67
79123;BME280;68526;44.600;26.032;2024-01-10T00:56:40;102218.19;;;-5.14;71.92
79123;BME280;68526;44.600;26.032;2024-01-10T00:56:57;102217.19;;;-5.13;72.06
79123;BME280;68526;44.600;26.032;2024-01-10T00:57:13;102215.50;;;-5.14;71.84
79123;BME280;68526;44.600;26.032;2024-01-10T00:57:30;102216.16;;;-5.12;71.89
79123;BME280;68526;44.600;26.032;2024-01-10T00:57:45;102215.00;;;-5.09;71.69
79123;BME280;68526;44.600;26.032;2024-01-10T00:58:01;102218.50;;;-5.08;71.68
79123;BME280;68526;44.600;26.032;2024-01-10T00:58:17;102223.69;;;-5.07;71.57
79123;BME280;68526;44.600;26.032;2024-01-10T00:58:35;102212.66;;;-5.12;71.89
79123;BME280;68526;44.600;26.032;2024-01-10T00:58:51;102213.16;;;-5.08;71.68
79123;BME280;68526;44.600;26.032;2024-01-10T00:59:11;102217.00;;;-5.11;72.14
79123;BME280;68526;44.600;26.032;2024-01-10T00:59:27;102217.88;;;-5.19;72.77
79123;BME280;68526;44.600;26.032;2024-01-10T00:59:43;102211.88;;;-5.21;72.71
79123;BME280;68526;44.600;26.032;2024-01-10T00:59:59;102216.66;;;-5.16;72.65
79123;BME280;68526;44.600;26.032;2024-01-10T01:00:15;102217.19;;;-5.13;72.30
79123;BME280;68526;44.600;26.032;2024-01-10T01:00:32;102200.66;;;-5.24;72.38
79123;BME280;68526;44.600;26.032;2024-01-10T01:00:48;102210.50;;;-5.17;72.67
79123;BME280;68526;44.600;26.032;2024-01-10T01:01:04;102213.84;;;-5.15;72.53
79123;BME280;68526;44.600;26.032;2024-01-10T01:01:20;102212.50;;;-5.19;72.48
79123;BME280;68526;44.600;26.032;2024-01-10T01:01:36;102214.00;;;-5.16;72.43
79123;BME280;68526;44.600;26.032;2024-01-10T01:01:52;102210.81;;;-5.12;72.84
79123;BME280;68526;44.600;26.032;2024-01-10T01:02:08;102213.03;;;-5.15;72.57
79123;BME280;68526;44.600;26.032;2024-01-10T01:02:25;102208.50;;;-5.15;72.85
79123;BME280;68526;44.600;26.032;2024-01-10T01:02:41;102214.50;;;-5.13;72.78
79123;BME280;68526;44.600;26.032;2024-01-10T01:02:57;102206.50;;;-5.13;72.76
79123;BME280;68526;44.600;26.032;2024-01-10T01:03:13;102211.84;;;-5.13;73.03
79123;BME280;68526;44.600;26.032;2024-01-10T01:03:28;102206.66;;;-5.14;73.33
79123;BME280;68526;44.600;26.032;2024-01-10T01:03:44;102207.69;;;-5.15;73.06
79123;BME280;68526;44.600;26.032;2024-01-10T01:04:00;102182.16;;;-5.26;73.18
79123;BME280;68526;44.600;26.032;2024-01-10T01:04:17;102205.66;;;-5.13;73.10
79123;BME280;68526;44.600;26.032;2024-01-10T01:04:33;102203.81;;;-5.13;73.16
79123;BME280;68526;44.600;26.032;2024-01-10T01:04:49;102212.34;;;-5.17;73.56
79123;BME280;68526;44.600;26.032;2024-01-10T01:05:06;102208.19;;;-5.20;73.74
79123;BME280;68526;44.600;26.032;2024-01-10T01:05:22;102208.19;;;-5.20;73.67
79123;BME280;68526;44.600;26.032;2024-01-10T01:05:38;102203.50;;;-5.18;73.59
79123;BME280;68526;44.600;26.032;2024-01-10T01:05:55;102207.50;;;-5.14;73.35
79123;BME280;68526;44.600;26.032;2024-01-10T01:06:11;102206.31;;;-5.11;73.34
79123;BME280;68526;44.600;26.032;2024-01-10T01:06:27;102198.28;;;-5.11;73.37
79123;BME280;68526;44.600;26.032;2024-01-10T01:06:43;102199.94;;;-5.10;73.25
79123;BME280;68526;44.600;26.032;2024-01-10T01:06:59;102202.97;;;-5.13;73.67
79123;BME280;68526;44.600;26.032;2024-01-10T01:07:15;102204.66;;;-5.12;73.59
79123;BME280;68526;44.600;26.032;2024-01-10T01:07:31;102203.31;;;-5.16;73.86
79123;BME280;68526;44.600;26.032;2024-01-10T01:07:48;102203.31;;;-5.16;73.99
79123;BME280;68526;44.600;26.032;2024-01-10T01:08:04;102206.66;;;-5.14;73.58
79123;BME280;68526;44.600;26.032;2024-01-10T01:08:20;102201.31;;;-5.14;73.76
79123;BME280;68526;44.600;26.032;2024-01-10T01:08:36;102206.84;;;-5.16;73.80
79123;BME280;68526;44.600;26.032;2024-01-10T01:08:52;102208.16;;;-5.12;73.77
79123;BME280;68526;44.600;26.032;2024-01-10T01:09:08;102202.63;;;-5.10;73.73
79123;BME280;68526;44.600;26.032;2024-01-10T01:09:25;102202.47;;;-5.17;73.77
79123;BME280;68526;44.600;26.032;2024-01-10T01:09:42;102199.81;;;-5.17;73.83
79123;BME280;68526;44.600;26.032;2024-01-10T01:09:58;102195.16;;;-5.15;73.93
79123;BME280;68526;44.600;26.032;2024-01-10T01:10:15;102205.00;;;-5.15;73.85
79123;BME280;68526;44.600;26.032;2024-01-10T01:10:31;102204.47;;;-5.11;73.92
79123;BME280;68526;44.600;26.032;2024-01-10T01:10:47;102205.16;;;-5.08;73.67
79123;BME280;68526;44.600;26.032;2024-01-10T01:11:03;102206.16;;;-5.09;73.88
79123;BME280;68526;44.600;26.032;2024-01-10T01:11:20;102193.78;;;-5.11;73.90
79123;BME280;68526;44.600;26.032;2024-01-10T01:11:36;102195.47;;;-5.09;73.77
79123;BME280;68526;44.600;26.032;2024-01-10T01:11:51;102204.97;;;-5.07;73.63
79123;BME280;68526;44.600;26.032;2024-01-10T01:12:07;102198.63;;;-5.06;74.22
79123;BME280;68526;44.600;26.032;2024-01-10T01:12:23;102199.63;;;-5.07;73.80
79123;BME280;68526;44.600;26.032;2024-01-10T01:12:39;102197.59;;;-5.05;73.87
79123;BME280;68526;44.600;26.032;2024-01-10T01:12:56;102195.75;;;-5.04;73.83
79123;BME280;68526;44.600;26.032;2024-01-10T01:13:12;102191.28;;;-5.12;74.17
79123;BME280;68526;44.600;26.032;2024-01-10T01:13:28;102197.28;;;-5.10;74.27
79123;BME280;68526;44.600;26.032;2024-01-10T01:13:44;102190.13;;;-5.09;74.03
79123;BME280;68526;44.600;26.032;2024-01-10T01:14:00;102192.63;;;-5.08;74.08
79123;BME280;68526;44.600;26.032;2024-01-10T01:14:15;102191.78;;;-5.08;74.04
79123;BME280;68526;44.600;26.032;2024-01-10T01:14:31;102194.09;;;-5.05;74.20
79123;BME280;68526;44.600;26.032;2024-01-10T01:14:47;102199.28;;;-5.04;73.97
79123;BME280;68526;44.600;26.032;2024-01-10T01:15:05;102197.13;;;-5.08;74.28
79123;BME280;68526;44.600;26.032;2024-01-10T01:15:21;102198.16;;;-5.09;74.56
79123;BME280;68526;44.600;26.032;2024-01-10T01:15:37;102195.47;;;-5.09;74.34
79123;BME280;68526;44.600;26.032;2024-01-10T01:15:53;102191.59;;;-5.07;74.29
79123;BME280;68526;44.600;26.032;2024-01-10T01:16:10;102202.13;;;-5.05;74.06
79123;BME280;68526;44.600;26.032;2024-01-10T01:16:27;102196.31;;;-5.09;74.25
79123;BME280;68526;44.600;26.032;2024-01-10T01:16:43;102197.28;;;-5.10;74.58
79123;BME280;68526;44.600;26.032;2024-01-10T01:16:59;102191.78;;;-5.08;74.25
79123;BME280;68526;44.600;26.032;2024-01-10T01:17:15;102193.78;;;-5.11;74.21
79123;BME280;68526;44.600;26.032;2024-01-10T01:17:31;102197.00;;;-5.15;74.68
79123;BME280;68526;44.600;26.032;2024-01-10T01:17:47;102196.63;;;-5.12;74.64
79123;BME280;68526;44.600;26.032;2024-01-10T01:18:03;102188.78;;;-5.14;74.43
79123;BME280;68526;44.600;26.032;2024-01-10T01:18:20;102192.63;;;-5.08;74.45
79123;BME280;68526;44.600;26.032;2024-01-10T01:18:36;102194.28;;;-5.07;74.57
79123;BME280;68526;44.600;26.032;2024-01-10T01:18:52;102191.59;;;-5.07;73.86
79123;BME280;68526;44.600;26.032;2024-01-10T01:19:07;102197.13;;;-5.08;74.26
79123;BME280;68526;44.600;26.032;2024-01-10T01:19:23;102194.31;;;-5.15;74.85
79123;BME280;68526;44.600;26.032;2024-01-10T01:19:39;102191.78;;;-5.17;74.50
79123;BME280;68526;44.600;26.032;2024-01-10T01:19:56;102193.50;;;-5.16;74.66
79123;BME280;68526;44.600;26.032;2024-01-10T01:20:12;102194.97;;;-5.13;74.68
79123;BME280;68526;44.600;26.032;2024-01-10T01:20:28;102186.94;;;-5.13;74.91
79123;BME280;68526;44.600;26.032;2024-01-10T01:20:44;102188.63;;;-5.12;74.51
79123;BME280;68526;44.600;26.032;2024-01-10T01:21:00;102185.94;;;-5.12;74.68
79123;BME280;68526;44.600;26.032;2024-01-10T01:21:16;102194.13;;;-5.14;74.66
79123;BME280;68526;44.600;26.032;2024-01-10T01:21:32;102187.44;;;-5.09;74.67
79123;BME280;68526;44.600;26.032;2024-01-10T01:21:47;102194.47;;;-5.17;75.18
79123;BME280;68526;44.600;26.032;2024-01-10T01:22:04;102185.47;;;-5.16;75.09
79123;BME280;68526;44.600;26.032;2024-01-10T01:22:20;102189.66;;;-5.21;75.45
79123;BME280;68526;44.600;26.032;2024-01-10T01:22:36;102196.16;;;-5.16;75.36
79123;BME280;68526;44.600;26.032;2024-01-10T01:22:52;102188.66;;;-5.20;75.22
79123;BME280;68526;44.600;26.032;2024-01-10T01:23:08;102188.97;;;-5.15;75.41
79123;BME280;68526;44.600;26.032;2024-01-10T01:23:24;102191.28;;;-5.12;75.07
79123;BME280;68526;44.600;26.032;2024-01-10T01:23:40;102190.63;;;-5.14;75.04